sensor_id;sensor_type;location;lat;lon;timestamp;pressure;altitude;pressure_sealevel;temperature;humidity
53754;BME280;39667;52.274;20.964;2023-02-22T00:00:42;100184.73;;;3.60;78.99
53754;BME280;39667;52.274;20.964;2023-02-22T00:06:23;100191.06;;;3.53;79.19
53754;BME280;39667;52.274;20.964;2023-02-22T00:08:54;100188.06;;;3.51;79.11
53754;BME280;39667;52.274;20.964;2023-02-22T00:11:24;100190.25;;;3.45;79.23
53754;BME280;39667;52.274;20.964;2023-02-22T00:13:54;100191.17;;;3.39;79.24
53754;BME280;39667;52.274;20.964;2023-02-22T00:16:27;100190.99;;;3.39;79.27
53754;BME280;39667;52.274;20.964;2023-02-22T00:19:00;100187.97;;;3.44;79.22
53754;BME280;39667;52.274;20.964;2023-02-22T00:21:28;100190.25;;;3.46;79.09
53754;BME280;39667;52.274;20.964;2023-02-22T00:24:22;100194.29;;;3.48;78.80
53754;BME280;39667;52.274;20.964;2023-02-22T00:26:54;100192.85;;;3.46;78.46
53754;BME280;39667;52.274;20.964;2023-02-22T00:29:54;100192.70;;;3.45;78.44
53754;BME280;39667;52.274;20.964;2023-02-22T00:33:03;100194.45;;;3.47;78.49
53754;BME280;39667;52.274;20.964;2023-02-22T00:35:32;100201.26;;;3.48;78.36
53754;BME280;39667;52.274;20.964;2023-02-22T00:38:02;100203.12;;;3.45;78.45
53754;BME280;39667;52.274;20.964;2023-02-22T00:40:33;100208.48;;;3.43;78.41
53754;BME280;39667;52.274;20.964;2023-02-22T00:43:09;100208.05;;;3.39;78.40
53754;BME280;39667;52.274;20.964;2023-02-22T00:46:12;100210.64;;;3.37;78.44
53754;BME280;39667;52.274;20.964;2023-02-22T00:52:23;100219.98;;;3.33;78.38
53754;BME280;39667;52.274;20.964;2023-02-22T00:54:53;100223.95;;;3.31;78.54
53754;BME280;39667;52.274;20.964;2023-02-22T00:57:29;100226.23;;;3.32;78.41
53754;BME280;39667;52.274;20.964;2023-02-22T01:00:32;100228.84;;;3.33;78.49
53754;BME280;39667;52.274;20.964;2023-02-22T01:10:00;100243.16;;;3.25;78.29
53754;BME280;39667;52.274;20.964;2023-02-22T01:13:02;100244.73;;;3.16;78.20
53754;BME280;39667;52.274;20.964;2023-02-22T01:16:08;100244.52;;;3.14;78.39
53754;BME280;39667;52.274;20.964;2023-02-22T01:19:29;100251.23;;;3.10;78.40
53754;BME280;39667;52.274;20.964;2023-02-22T01:22:00;100260.48;;;3.03;78.46
53754;BME280;39667;52.274;20.964;2023-02-22T01:24:28;100265.88;;;3.03;78.65
53754;BME280;39667;52.274;20.964;2023-02-22T01:27:02;100270.39;;;3.02;78.57
53754;BME280;39667;52.274;20.964;2023-02-22T01:29:47;100270.08;;;2.95;78.66
53754;BME280;39667;52.274;20.964;2023-02-22T01:32:15;100274.70;;;2.92;78.87
53754;BME280;39667;52.274;20.964;2023-02-22T01:34:52;100279.27;;;2.93;78.93
53754;BME280;39667;52.274;20.964;2023-02-22T01:37:19;100280.63;;;2.92;78.88
53754;BME280;39667;52.274;20.964;2023-02-22T01:39:53;100278.74;;;2.94;78.92
53754;BME280;39667;52.274;20.964;2023-02-22T01:42:23;100281.14;;;3.00;79.04
53754;BME280;39667;52.274;20.964;2023-02-22T01:48:25;100284.09;;;3.00;78.67
53754;BME280;39667;52.274;20.964;2023-02-22T01:54:38;100281.48;;;3.00;78.71
53754;BME280;39667;52.274;20.964;2023-02-22T01:57:30;100282.73;;;3.01;78.68
53754;BME280;39667;52.274;20.964;2023-02-22T02:00:04;100288.01;;;3.04;78.60
53754;BME280;39667;52.274;20.964;2023-02-22T02:02:54;100291.38;;;2.99;78.23
53754;BME280;39667;52.274;20.964;2023-02-22T02:05:28;100289.34;;;2.93;78.47
53754;BME280;39667;52.274;20.964;2023-02-22T02:08:04;100289.82;;;2.91;78.39
53754;BME280;39667;52.274;20.964;2023-02-22T02:10:34;100289.74;;;2.87;78.43
53754;BME280;39667;52.274;20.964;2023-02-22T02:13:02;100291.01;;;2.89;78.61
53754;BME280;39667;52.274;20.964;2023-02-22T02:15:33;100295.20;;;2.90;78.40
53754;BME280;39667;52.274;20.964;2023-02-22T02:18:08;100294.21;;;2.85;78.21
53754;BME280;39667;52.274;20.964;2023-02-22T02:33:07;100303.52;;;2.71;78.43
53754;BME280;39667;52.274;20.964;2023-02-22T02:36:13;100309.15;;;2.67;78.33
53754;BME280;39667;52.274;20.964;2023-02-22T02:41:54;100311.52;;;2.56;78.57
53754;BME280;39667;52.274;20.964;2023-02-22T02:48:14;100313.95;;;2.71;78.61
53754;BME280;39667;52.274;20.964;2023-02-22T02:51:39;100316.34;;;2.78;78.38
53754;BME280;39667;52.274;20.964;2023-02-22T02:54:38;100324.94;;;2.90;78.02
53754;BME280;39667;52.274;20.964;2023-02-22T02:57:10;100330.32;;;2.97;77.89
53754;BME280;39667;52.274;20.964;2023-02-22T02:59:44;100328.46;;;3.01;77.49
53754;BME280;39667;52.274;20.964;2023-02-22T03:02:47;100326.30;;;2.97;77.20
53754;BME280;39667;52.274;20.964;2023-02-22T03:09:43;100331.61;;;3.09;77.27
53754;BME280;39667;52.274;20.964;2023-02-22T03:16:07;100340.66;;;3.10;77.12
53754;BME280;39667;52.274;20.964;2023-02-22T03:19:18;100344.33;;;3.11;77.15
53754;BME280;39667;52.274;20.964;2023-02-22T03:27:30;100351.33;;;3.29;77.18
53754;BME280;39667;52.274;20.964;2023-02-22T03:30:06;100351.89;;;3.23;77.08
53754;BME280;39667;52.274;20.964;2023-02-22T03:32:39;100353.89;;;3.18;77.31
53754;BME280;39667;52.274;20.964;2023-02-22T03:35:30;100358.65;;;3.12;77.12
53754;BME280;39667;52.274;20.964;2023-02-22T03:38:23;100361.56;;;3.03;77.17
53754;BME280;39667;52.274;20.964;2023-02-22T03:41:07;100362.83;;;3.05;77.57
53754;BME280;39667;52.274;20.964;2023-02-22T03:43:43;100359.85;;;3.12;77.90
53754;BME280;39667;52.274;20.964;2023-02-22T03:46:14;100362.95;;;3.18;77.97
53754;BME280;39667;52.274;20.964;2023-02-22T03:49:13;100363.40;;;3.24;77.84
53754;BME280;39667;52.274;20.964;2023-02-22T03:51:43;100365.10;;;3.22;77.74
53754;BME280;39667;52.274;20.964;2023-02-22T03:55:43;100371.33;;;3.20;77.61
53754;BME280;39667;52.274;20.964;2023-02-22T03:58:12;100376.73;;;3.20;77.83
53754;BME280;39667;52.274;20.964;2023-02-22T04:00:44;100379.19;;;3.21;77.76
53754;BME280;39667;52.274;20.964;2023-02-22T04:04:20;100380.52;;;3.27;78.06
53754;BME280;39667;52.274;20.964;2023-02-22T04:06:53;100387.73;;;3.31;78.13
53754;BME280;39667;52.274;20.964;2023-02-22T04:09:22;100383.83;;;3.37;78.33
53754;BME280;39667;52.274;20.964;2023-02-22T04:11:50;100385.75;;;3.44;78.38
53754;BME280;39667;52.274;20.964;2023-02-22T04:14:19;100389.70;;;3.51;78.44
53754;BME280;39667;52.274;20.964;2023-02-22T04:16:50;100390.20;;;3.58;78.30
53754;BME280;39667;52.274;20.964;2023-02-22T04:19:19;100388.00;;;3.63;77.95
53754;BME280;39667;52.274;20.964;2023-02-22T04:21:50;100394.48;;;3.63;78.18
53754;BME280;39667;52.274;20.964;2023-02-22T04:24:23;100396.27;;;3.67;78.06
53754;BME280;39667;52.274;20.964;2023-02-22T04:26:52;100398.73;;;3.67;77.90
53754;BME280;39667;52.274;20.964;2023-02-22T04:29:27;100404.06;;;3.64;77.78
53754;BME280;39667;52.274;20.964;2023-02-22T04:32:07;100408.38;;;3.62;77.35
53754;BME280;39667;52.274;20.964;2023-02-22T04:34:35;100408.98;;;3.58;77.07
53754;BME280;39667;52.274;20.964;2023-02-22T04:37:11;100414.55;;;3.57;76.85
53754;BME280;39667;52.274;20.964;2023-02-22T04:39:40;100413.59;;;3.53;76.61
53754;BME280;39667;52.274;20.964;2023-02-22T04:42:10;100410.95;;;3.52;76.57
53754;BME280;39667;52.274;20.964;2023-02-22T04:44:38;100413.83;;;3.47;76.16
53754;BME280;39667;52.274;20.964;2023-02-22T04:47:09;100416.76;;;3.46;76.27
53754;BME280;39667;52.274;20.964;2023-02-22T04:49:39;100416.02;;;3.44;76.01
53754;BME280;39667;52.274;20.964;2023-02-22T04:52:08;100415.33;;;3.43;76.08
53754;BME280;39667;52.274;20.964;2023-02-22T04:54:39;100418.32;;;3.45;75.68
53754;BME280;39667;52.274;20.964;2023-02-22T05:00:07;100425.44;;;3.53;75.65
53754;BME280;39667;52.274;20.964;2023-02-22T05:02:38;100424.84;;;3.49;75.13
53754;BME280;39667;52.274;20.964;2023-02-22T05:05:07;100426.16;;;3.45;75.18
53754;BME280;39667;52.274;20.964;2023-02-22T05:07:43;100427.48;;;3.42;75.21
53754;BME280;39667;52.274;20.964;2023-02-22T05:10:21;100427.13;;;3.42;75.18
53754;BME280;39667;52.274;20.964;2023-02-22T05:12:49;100429.82;;;3.37;74.82
53754;BME280;39667;52.274;20.964;2023-02-22T05:15:21;100431.52;;;3.34;74.87
53754;BME280;39667;52.274;20.964;2023-02-22T05:18:25;100438.65;;;3.35;74.92
53754;BME280;39667;52.274;20.964;2023-02-22T05:20:56;100434.84;;;3.36;74.81
53754;BME280;39667;52.274;20.964;2023-02-22T05:23:24;100438.98;;;3.35;74.61
53754;BME280;39667;52.274;20.964;2023-02-22T05:25:51;100439.38;;;3.28;74.59
53754;BME280;39667;52.274;20.964;2023-02-22T05:28:45;100439.38;;;3.28;74.95
53754;BME280;39667;52.274;20.964;2023-02-22T05:32:20;100443.92;;;3.29;75.08
53754;BME280;39667;52.274;20.964;2023-02-22T05:44:10;100458.29;;;3.42;74.73
53754;BME280;39667;52.274;20.964;2023-02-22T05:48:13;100461.34;;;3.46;74.75
